TimeMDT,TemperatureF,Dew PointF,Humidity,Sea Level PressureIn,VisibilityMPH,Wind Direction,Wind SpeedMPH,Gust SpeedMPH,PrecipitationIn,Events,Conditions,WindDirDegrees,DateUTC
12:15 AM,64.9,47.1,52,30.48,10.0,West,11.5,18.4,N/A,,Clear,260,2013-07-18 06:15:00
12:35 AM,65.3,46.6,51,30.47,10.0,SSW,6.9,-,N/A,,Clear,200,2013-07-18 06:35:00
12:55 AM,61.9,48.7,62,30.47,10.0,Calm,Calm,-,N/A,,Clear,0,2013-07-18 06:55:00
1:15 AM,59.9,49.3,68,30.47,10.0,South,5.8,-,N/A,,Clear,170,2013-07-18 07:15:00
1:35 AM,60.3,49.1,67,30.47,10.0,South,3.5,-,N/A,,Clear,190,2013-07-18 07:35:00
1:55 AM,62.6,47.7,58,30.46,10.0,Calm,Calm,-,N/A,,Clear,0,2013-07-18 07:55:00
2:15 AM,60.3,48.2,64,30.46,10.0,Calm,Calm,-,N/A,,Clear,0,2013-07-18 08:15:00
2:35 AM,60.4,48.7,65,30.45,10.0,SW,3.5,-,N/A,,Clear,230,2013-07-18 08:35:00
2:55 AM,60.8,48.4,64,30.45,10.0,SW,3.5,-,N/A,,Clear,230,2013-07-18 08:55:00
3:15 AM,59.9,48.2,65,30.45,10.0,Calm,Calm,-,N/A,,Clear,0,2013-07-18 09:15:00
3:35 AM,61.0,47.7,62,30.44,10.0,NNW,6.9,-,N/A,,Clear,340,2013-07-18 09:35:00
3:55 AM,61.9,46.9,58,30.45,10.0,North,8.1,-,N/A,,Clear,350,2013-07-18 09:55:00
4:15 AM,61.2,47.8,62,30.45,10.0,North,8.1,-,N/A,,Clear,350,2013-07-18 10:15:00
4:35 AM,60.3,48.2,64,30.45,10.0,North,5.8,-,N/A,,Clear,360,2013-07-18 10:35:00
4:55 AM,60.3,48.0,64,30.45,10.0,NW,5.8,-,N/A,,Clear,310,2013-07-18 10:55:00
5:15 AM,59.4,48.6,67,30.45,10.0,North,6.9,-,N/A,,Clear,360,2013-07-18 11:15:00
5:35 AM,59.5,48.7,67,30.45,10.0,North,5.8,-,N/A,,Clear,360,2013-07-18 11:35:00
5:55 AM,59.2,48.4,67,30.45,10.0,NNE,3.5,-,N/A,,Clear,30,2013-07-18 11:55:00
6:15 AM,59.9,48.2,65,30.46,10.0,North,4.6,-,N/A,,Clear,350,2013-07-18 12:15:00
6:35 AM,60.4,48.4,64,30.45,10.0,North,5.8,-,N/A,,Clear,360,2013-07-18 12:35:00
6:55 AM,61.5,49.1,64,30.46,10.0,NNW,9.2,-,N/A,,Clear,340,2013-07-18 12:55:00
7:15 AM,61.9,48.7,62,30.46,10.0,NNW,9.2,-,N/A,,Clear,340,2013-07-18 13:15:00
7:35 AM,63.1,49.5,61,30.46,10.0,North,9.2,-,N/A,,Clear,350,2013-07-18 13:35:00
7:55 AM,64.8,50.0,59,30.46,10.0,North,9.2,-,N/A,,Clear,350,2013-07-18 13:55:00
8:15 AM,66.6,50.2,56,30.46,10.0,North,5.8,-,N/A,,Clear,350,2013-07-18 14:15:00
8:35 AM,69.3,49.3,49,30.46,10.0,West,5.8,-,N/A,,Clear,260,2013-07-18 14:35:00
8:55 AM,70.7,49.5,47,30.46,10.0,Calm,Calm,-,N/A,,Scattered Clouds,0,2013-07-18 14:55:00
9:15 AM,70.7,49.5,47,30.45,10.0,North,5.8,-,N/A,,Scattered Clouds,360,2013-07-18 15:15:00
9:35 AM,73.6,47.7,40,30.45,10.0,Calm,Calm,-,N/A,,Scattered Clouds,0,2013-07-18 15:35:00
9:55 AM,73.4,48.2,41,30.44,10.0,NNE,5.8,-,N/A,,Scattered Clouds,20,2013-07-18 15:55:00
10:15 AM,75.4,47.7,37,30.44,10.0,Calm,Calm,-,N/A,,Scattered Clouds,0,2013-07-18 16:15:00
10:35 AM,75.0,46.9,37,30.43,10.0,Calm,Calm,-,N/A,,Scattered Clouds,0,2013-07-18 16:35:00
10:55 AM,78.3,46.4,32,30.42,10.0,Calm,Calm,-,N/A,,Scattered Clouds,0,2013-07-18 16:55:00
11:15 AM,79.5,45.7,30,30.41,10.0,NNE,3.5,-,N/A,,Clear,30,2013-07-18 17:15:00
11:35 AM,81.9,46.0,28,30.40,10.0,North,5.8,-,N/A,,Clear,10,2013-07-18 17:35:00
11:55 AM,82.4,46.2,28,30.39,10.0,WSW,5.8,-,N/A,,Clear,250,2013-07-18 17:55:00
12:15 PM,84.7,46.0,26,30.38,10.0,SSW,8.1,-,N/A,,Clear,210,2013-07-18 18:15:00
12:35 PM,82.6,45.9,28,30.38,10.0,SE,6.9,-,N/A,,Scattered Clouds,130,2013-07-18 18:35:00
12:55 PM,81.5,45.5,28,30.37,10.0,ESE,6.9,16.1,N/A,,Clear,120,2013-07-18 18:55:00
1:15 PM,80.4,45.9,30,30.37,10.0,SE,4.6,-,N/A,,Clear,130,2013-07-18 19:15:00
1:35 PM,85.6,42.1,22,30.35,10.0,SSE,8.1,-,N/A,,Clear,150,2013-07-18 19:35:00
1:55 PM,86.2,43.7,23,30.34,10.0,SE,9.2,-,N/A,,Clear,130,2013-07-18 19:55:00
2:15 PM,85.8,45.9,25,30.34,10.0,SE,10.4,-,N/A,,Clear,130,2013-07-18 20:15:00
2:35 PM,86.9,42.6,21,30.33,10.0,ESE,10.4,18.4,N/A,,Clear,110,2013-07-18 20:35:00
2:55 PM,86.9,43.3,22,30.33,10.0,ESE,13.8,20.7,N/A,,Scattered Clouds,120,2013-07-18 20:55:00
3:15 PM,86.4,43.9,23,30.32,10.0,SSE,15.0,20.7,N/A,,Scattered Clouds,150,2013-07-18 21:15:00
4:15 PM,68.4,53.4,59,30.39,10.0,NW,15.0,26.5,N/A,,Overcast,320,2013-07-18 22:15:00
4:35 PM,64.6,54.5,70,30.41,10.0,WNW,15.0,25.3,N/A,,Overcast,290,2013-07-18 22:35:00
4:55 PM,65.3,55.9,72,30.44,10.0,NW,10.4,-,N/A,,Overcast,310,2013-07-18 22:55:00
5:15 PM,63.3,57.0,80,30.46,10.0,WNW,10.4,16.1,N/A,,Overcast,290,2013-07-18 23:15:00
5:35 PM,62.4,57.2,83,30.47,10.0,NW,13.8,19.6,N/A,,Overcast,320,2013-07-18 23:35:00
5:55 PM,61.7,57.0,85,30.49,10.0,NW,6.9,-,N/A,,Overcast,320,2013-07-18 23:55:00
6:15 PM,61.0,56.8,86,30.49,10.0,North,8.1,-,N/A,,Overcast,350,2013-07-19 00:15:00
6:35 PM,60.4,56.5,87,30.50,7.0,Calm,Calm,-,N/A,,Overcast,0,2013-07-19 00:35:00
6:55 PM,60.3,55.4,84,30.50,5.0,Calm,Calm,-,N/A,,Overcast,0,2013-07-19 00:55:00
7:15 PM,59.7,55.6,86,30.50,4.0,WNW,8.1,-,N/A,,Overcast,290,2013-07-19 01:15:00
7:35 PM,59.0,55.4,88,30.50,5.0,NW,10.4,-,N/A,,Overcast,310,2013-07-19 01:35:00
7:55 PM,58.5,55.8,91,30.49,5.0,WNW,12.7,-,N/A,,Overcast,300,2013-07-19 01:55:00
8:15 PM,58.5,55.0,88,30.51,10.0,Calm,Calm,-,N/A,,Overcast,0,2013-07-19 02:15:00
8:35 PM,59.0,55.6,88,30.52,10.0,North,9.2,-,N/A,,Overcast,360,2013-07-19 02:35:00
8:55 PM,58.5,55.0,88,30.52,10.0,NNW,5.8,-,N/A,,Overcast,330,2013-07-19 02:55:00
9:15 PM,58.3,54.9,88,30.54,10.0,Calm,Calm,-,N/A,,Overcast,0,2013-07-19 03:15:00
9:35 PM,58.1,54.7,88,30.54,10.0,Calm,Calm,-,N/A,,Overcast,0,2013-07-19 03:35:00
9:55 PM,58.3,54.5,87,30.54,10.0,West,3.5,-,N/A,,Overcast,280,2013-07-19 03:55:00
10:15 PM,58.5,55.8,91,30.54,10.0,Calm,Calm,-,N/A,,Mostly Cloudy,0,2013-07-19 04:15:00
10:35 PM,58.6,55.8,90,30.54,10.0,Calm,Calm,-,N/A,,Scattered Clouds,0,2013-07-19 04:35:00
10:55 PM,57.6,55.8,94,30.53,10.0,North,3.5,-,N/A,,Clear,360,2013-07-19 04:55:00
11:15 PM,58.1,55.4,91,30.52,10.0,NW,4.6,-,N/A,,Scattered Clouds,310,2013-07-19 05:15:00
11:35 PM,58.1,54.7,88,30.50,10.0,WSW,5.8,-,N/A,,Scattered Clouds,250,2013-07-19 05:35:00
11:55 PM,58.1,55.8,92,30.50,10.0,West,3.5,-,N/A,,Mostly Cloudy,260,2013-07-19 05:55:00